This is the latest recevied weather packets stored in our database for station/object K4JOZ. If no packets are shown the sender has not sent any weather packets the latest 10 day(s).
| Time | Temp. | Humidity | Pressure | Rain* | Wind** | Luminosity | Snow |
|---|---|---|---|---|---|---|---|
| 1777955869 | 8.89° C | 43% | 1011.1 hPa | 0 mm | - | - | - |
| 1777954969 | 9.44° C | 46% | 1011 hPa | 0 mm | - | - | - |
| 1777954069 | 9.44° C | 46% | 1011 hPa | 0 mm | - | - | - |
| 1777953297 | 9.44° C | 53% | 1011 hPa | 0 mm | - | - | - |
| 1777953169 | 9.44° C | 53% | 1011 hPa | 0 mm | - | - | - |
| 1777952269 | 10° C | 55% | 1011.1 hPa | 0 mm | - | - | - |
| 1777951369 | 10° C | 57% | 1011 hPa | 0 mm | - | - | - |
| 1777950469 | 10.56° C | 61% | 1011.1 hPa | 0 mm | - | - | - |
| 1777949569 | 11.11° C | 63% | 1011.2 hPa | 0 mm | - | - | - |
| 1777948669 | 11.67° C | 63% | 1011.2 hPa | 0 mm | - | - | - |
| 1777947769 | 12.22° C | 66% | 1011.1 hPa | 0 mm | - | - | - |
| 1777946869 | 12.78° C | 68% | 1010.9 hPa | 0 mm | - | - | - |
| 1777945969 | 13.89° C | 70% | 1010.9 hPa | 0 mm | - | - | - |
| 1777945069 | 14.44° C | 70% | 1010.8 hPa | 0 mm | - | - | - |
| 1777944169 | 15.56° C | 70% | 1010.7 hPa | 0 mm | - | - | - |
| 1777943269 | 16.67° C | 68% | 1010.4 hPa | 0 mm | - | - | - |
| 1777942369 | 18.33° C | 62% | 1010.3 hPa | 0 mm | - | - | - |
| 1777941469 | 19.44° C | 58% | 1010.3 hPa | 0 mm | - | - | - |
| 1777940569 | 21.11° C | 53% | 1010.1 hPa | 0 mm | - | - | - |
| 1777939669 | 22.78° C | 49% | 1010.2 hPa | 0 mm | - | - | - |
| 1777938769 | 23.33° C | 44% | 1010 hPa | 0 mm | - | - | - |
| 1777937869 | 23.33° C | 45% | 1010.1 hPa | 0 mm | - | - | - |
| 1777936969 | 23.33° C | 44% | 1010 hPa | 0 mm | - | - | - |
| 1777936069 | 23.89° C | 43% | 1010.2 hPa | 0 mm | - | - | - |
| 1777935169 | 24.44° C | 42% | 1010.2 hPa | 0 mm | - | - | - |
* Rain latest hour (hover to see other rain measurements)
** Current wind speed in m/s (hover to see current wind gust speed)